createdAt,value
2022-07-27T00:04:07.340Z,73.89
2022-07-27T00:09:38.904Z,73.49
2022-07-27T00:15:10.717Z,73.23
2022-07-27T00:20:42.350Z,73.42
2022-07-27T00:26:14.087Z,73.3
2022-07-27T00:31:45.969Z,73.05
2022-07-27T00:37:17.563Z,73.98
2022-07-27T00:42:49.291Z,74.33
2022-07-27T00:48:20.987Z,73.76
2022-07-27T00:53:57.124Z,75.09
2022-07-27T00:59:28.828Z,74.6
2022-07-27T01:05:00.575Z,74.69
2022-07-27T01:10:32.247Z,74.79
2022-07-27T01:16:04.238Z,74.92
2022-07-27T01:21:35.735Z,74.75
2022-07-27T01:27:07.439Z,74.27
2022-07-27T01:32:39.138Z,75.04
2022-07-27T01:38:11.044Z,75.51
2022-07-27T01:43:42.765Z,75.6
2022-07-27T01:49:15.374Z,75.66
2022-07-27T01:54:50.425Z,75.74
2022-07-27T02:00:22.245Z,75.67
2022-07-27T02:05:53.871Z,75.99
2022-07-27T02:11:25.577Z,76.87
2022-07-27T02:16:57.450Z,77.38
2022-07-27T02:22:28.950Z,76.58
2022-07-27T02:28:00.914Z,77.01
2022-07-27T02:33:32.449Z,77.55
2022-07-27T02:39:04.220Z,77.73
2022-07-27T02:44:35.956Z,78.4
2022-07-27T02:50:07.657Z,78.75
2022-07-27T02:55:43.803Z,79.87
2022-07-27T03:01:15.570Z,80.31
2022-07-27T03:06:47.238Z,80.75
2022-07-27T03:12:18.978Z,80.48
2022-07-27T03:17:50.637Z,80.51
2022-07-27T03:23:22.352Z,81.43
2022-07-27T03:28:54.309Z,81.27
2022-07-27T03:34:25.839Z,81.67
2022-07-27T03:39:57.561Z,82.62
2022-07-27T03:45:29.274Z,82.4
2022-07-27T03:51:01.017Z,82.3
2022-07-27T03:56:37.133Z,82.89
2022-07-27T04:02:09.004Z,82.75
2022-07-27T04:07:40.640Z,82.3
2022-07-27T04:13:14.265Z,83.86
2022-07-27T04:18:43.874Z,83.88
2022-07-27T04:24:15.616Z,85.99
2022-07-27T04:29:47.435Z,85.79
2022-07-27T04:35:26.632Z,85.23
2022-07-27T04:40:58.196Z,85.48
2022-07-27T04:46:23.923Z,86.11
2022-07-27T04:51:54.454Z,85.69
2022-07-27T04:57:32.443Z,85.66
2022-07-27T05:03:04.211Z,86.28
2022-07-27T05:08:35.934Z,85.86
2022-07-27T05:14:07.673Z,85.11
2022-07-27T05:19:41.174Z,85.48
2022-07-27T05:25:11.163Z,85.65
2022-07-27T05:30:42.813Z,85.57
2022-07-27T05:36:14.555Z,84.68
2022-07-27T05:41:49.730Z,83.83
2022-07-27T05:47:18.038Z,85.04
2022-07-27T05:52:49.698Z,84.38
2022-07-27T05:58:27.810Z,84.73
2022-07-27T06:03:59.670Z,84.42
2022-07-27T06:09:31.279Z,84.3
2022-07-27T06:15:02.906Z,83.74
2022-07-27T06:20:34.683Z,84.29
2022-07-27T06:26:06.429Z,84.08
2022-07-27T06:31:38.429Z,83.39
2022-07-27T06:37:09.894Z,83.49
2022-07-27T06:42:41.580Z,83.65
2022-07-27T06:48:13.287Z,83.07
2022-07-27T06:53:45.021Z,81.78
2022-07-27T06:59:21.221Z,80.84
2022-07-27T07:04:52.869Z,81.9
2022-07-27T07:10:24.639Z,81.95
2022-07-27T07:15:56.625Z,80.33
2022-07-27T07:21:28.249Z,80.16
2022-07-27T07:26:59.881Z,80.76
2022-07-27T07:32:33.912Z,81.32
2022-07-27T07:38:03.686Z,81.51
2022-07-27T07:43:34.983Z,81.6
2022-07-27T07:49:06.933Z,79.71
2022-07-27T07:54:38.529Z,79.42
2022-07-27T08:00:14.519Z,79.86
2022-07-27T08:05:46.198Z,79.18
2022-07-27T08:11:18.004Z,79.87
2022-07-27T08:16:49.697Z,78.88
2022-07-27T08:22:21.503Z,77.93
2022-07-27T08:27:56.287Z,79.56
2022-07-27T08:33:24.934Z,78.69
2022-07-27T08:38:56.703Z,77.71
2022-07-27T08:44:28.333Z,77.44
2022-07-27T08:50:00.843Z,77.96
2022-07-27T08:55:31.884Z,78.2
2022-07-27T09:01:07.924Z,78.03
2022-07-27T09:06:39.627Z,77.41
2022-07-27T09:12:11.438Z,77.19
2022-07-27T09:17:50.241Z,77.51
2022-07-27T09:23:15.043Z,76.79
2022-07-27T09:28:46.542Z,77.14
2022-07-27T09:34:18.442Z,75.06
2022-07-27T09:39:50.011Z,74.16
2022-07-27T09:45:22.408Z,74.08
2022-07-27T09:51:03.599Z,73.11
2022-07-27T09:56:25.201Z,71.45
2022-07-27T10:02:01.353Z,70.1
2022-07-27T10:07:32.997Z,70.08
2022-07-27T10:13:04.813Z,69.67
2022-07-27T10:18:38.165Z,69.77
2022-07-27T10:24:08.190Z,68.9
2022-07-27T10:29:40.124Z,67.65
2022-07-27T10:35:11.710Z,67.88
2022-07-27T10:40:43.347Z,68.06
2022-07-27T10:46:15.104Z,66.18
2022-07-27T10:51:46.965Z,65.33
2022-07-27T10:57:18.549Z,63.9
2022-07-27T11:02:54.710Z,64.17
2022-07-27T11:08:47.222Z,62.63
2022-07-27T11:13:58.126Z,60.86
2022-07-27T11:19:29.830Z,61.05
2022-07-27T11:25:01.832Z,64.81
2022-07-27T11:30:33.976Z,64.32
2022-07-27T11:36:04.959Z,64.45
2022-07-27T11:42:08.255Z,62.06
2022-07-27T11:47:08.411Z,61.87
2022-07-27T11:52:40.108Z,61.45
2022-07-27T11:58:11.772Z,60.12
2022-07-27T12:03:48.225Z,59.11
2022-07-27T12:09:19.653Z,59.02
2022-07-27T12:14:51.702Z,59.61
2022-07-27T12:20:23.070Z,59.17
2022-07-27T12:25:54.803Z,61.75
2022-07-27T12:31:26.852Z,63.34
2022-07-27T12:36:58.248Z,63.62
2022-07-27T12:42:29.963Z,63.13
2022-07-27T12:48:01.672Z,63.1
2022-07-27T12:53:33.653Z,61.46
2022-07-27T12:59:05.147Z,61.36
2022-07-27T13:04:41.298Z,59.38
2022-07-27T13:10:12.947Z,57.73
2022-07-27T13:15:44.778Z,59.86
2022-07-27T13:21:16.434Z,62.4
2022-07-27T13:26:48.242Z,62.18
2022-07-27T13:32:20.030Z,61.25
2022-07-27T13:37:51.706Z,61.06
2022-07-27T13:43:23.389Z,60.96
2022-07-27T13:48:55.136Z,61.44
2022-07-27T13:54:26.720Z,60.99
2022-07-27T13:59:58.774Z,60.47
2022-07-27T14:05:35.337Z,60.93
2022-07-27T14:11:07.726Z,60.78
2022-07-27T14:16:38.363Z,60.54
2022-07-27T14:22:09.768Z,61.48
2022-07-27T14:27:41.556Z,62.47
2022-07-27T14:33:13.225Z,61.89
2022-07-27T14:38:44.919Z,61.49
2022-07-27T14:44:19.241Z,61.02
2022-07-27T14:49:48.489Z,60.25
2022-07-27T14:55:20.540Z,59.23
2022-07-27T15:00:51.956Z,59.98
2022-07-27T15:06:28.277Z,58.87
2022-07-27T15:12:00.010Z,58.95
2022-07-27T15:17:31.846Z,59.86
2022-07-27T15:23:04.942Z,60.02
2022-07-27T15:28:35.357Z,59.87
2022-07-27T15:34:07.069Z,59.86
2022-07-27T15:39:38.861Z,59.57
2022-07-27T15:45:10.602Z,59.91
2022-07-27T15:50:42.250Z,60.07
2022-07-27T15:56:14.082Z,59.42
2022-07-27T16:01:47.512Z,58.99
2022-07-27T16:07:21.861Z,59.53
2022-07-27T16:12:53.649Z,59.63
2022-07-27T16:18:25.345Z,59.42
2022-07-27T16:23:57.010Z,58.91
2022-07-27T16:29:28.845Z,59.43
2022-07-27T16:35:00.514Z,59.15
2022-07-27T16:40:32.239Z,59.31
2022-07-27T16:46:04.236Z,59.4
2022-07-27T16:51:35.635Z,58.72
2022-07-27T16:57:07.379Z,59.41
2022-07-27T17:02:39.097Z,58.3
2022-07-27T17:08:15.218Z,58.51
2022-07-27T17:13:49.581Z,58.24
2022-07-27T17:19:18.603Z,59.05
2022-07-27T17:24:50.407Z,58.14
2022-07-27T17:30:22.097Z,58.71
2022-07-27T17:35:53.909Z,58.46
2022-07-27T17:41:26.106Z,58.38
2022-07-27T17:46:57.509Z,58.91
2022-07-27T17:52:29.122Z,58.67
2022-07-27T17:58:00.844Z,58.67
2022-07-27T18:03:32.668Z,58.88
2022-07-27T18:09:11.026Z,58.84
2022-07-27T18:14:42.445Z,59.4
2022-07-27T18:20:14.054Z,61.23
2022-07-27T18:25:45.936Z,61.82
2022-07-27T18:31:17.607Z,62.16
2022-07-27T18:36:49.497Z,62.06
2022-07-27T18:42:20.915Z,64.35
2022-07-27T18:47:52.663Z,65.16
2022-07-27T18:53:24.446Z,65.14
2022-07-27T18:58:56.119Z,65.88
2022-07-27T19:04:27.895Z,64.81
2022-07-27T19:10:05.916Z,64.94
2022-07-27T19:15:37.660Z,65.57
2022-07-27T19:21:09.385Z,65.6
2022-07-27T19:26:41.192Z,65.91
2022-07-27T19:32:12.915Z,66.39
2022-07-27T19:37:44.559Z,66.72
2022-07-27T19:43:16.348Z,66.79
2022-07-27T19:48:48.074Z,67.12
2022-07-27T19:54:19.723Z,67.16
2022-07-27T19:59:56.994Z,67.57
2022-07-27T20:05:23.733Z,67.93
2022-07-27T20:11:02.308Z,67.92
2022-07-27T20:16:33.906Z,67.21
2022-07-27T20:22:05.564Z,68.44
2022-07-27T20:27:37.417Z,68.24
2022-07-27T20:33:09.036Z,68.27
2022-07-27T20:38:40.944Z,68.6
2022-07-27T20:44:12.579Z,68.75
2022-07-27T20:49:44.268Z,68.68
2022-07-27T20:55:15.939Z,68.7
2022-07-27T21:00:47.743Z,68.99
2022-07-27T21:06:19.395Z,69.5
2022-07-27T21:11:57.446Z,69.78
2022-07-27T21:17:29.270Z,70.22
2022-07-27T21:23:01.146Z,70.08
2022-07-27T21:28:33.754Z,70.34
2022-07-27T21:34:04.430Z,70.3
2022-07-27T21:39:36.120Z,70.35
2022-07-27T21:45:07.821Z,70.38
2022-07-27T21:50:39.556Z,70.19
2022-07-27T21:56:11.323Z,70.61
2022-07-27T22:01:43.075Z,70.79
2022-07-27T22:07:19.747Z,70.77
2022-07-27T22:12:52.848Z,70.85
2022-07-27T22:18:24.627Z,71.5
2022-07-27T22:23:56.463Z,71.96
2022-07-27T22:29:28.027Z,72.01
2022-07-27T22:34:59.708Z,71.99
2022-07-27T22:40:31.372Z,72.23
2022-07-27T22:46:03.588Z,72.24
2022-07-27T22:51:54.410Z,72.75
2022-07-27T22:57:06.652Z,72.71
2022-07-27T23:02:38.459Z,72.84
2022-07-27T23:08:10.158Z,72.69
2022-07-27T23:13:46.330Z,72.54
2022-07-27T23:19:18.130Z,72.51
2022-07-27T23:24:51.548Z,72.92
2022-07-27T23:30:21.434Z,72.74
2022-07-27T23:35:53.538Z,72.93
2022-07-27T23:41:25.282Z,72.48
2022-07-27T23:46:56.829Z,72.6
2022-07-27T23:52:29.515Z,72.69
2022-07-27T23:58:00.129Z,73.44
